Terminal Aerodrome Forecast
Issued by NWS

Home | Current Version | Previous Version | Text Only | Print | Product List | Glossary On
Versions: 1 2 3 4 5 6 7 8 9 10 11 12 13 14 15 16 17 18 19 20 21 22 23 24 25 26 27 28 29 30 31 32 33 34 35 36 37 38 39 40 41 42 43 44 45 46 47
000
FTUS41 KAKQ 141120
TAFPHF
TAF
KPHF 141120Z 1412/1512 23005KT P6SM SCT050 BKN120
     FM142200 15008KT P6SM VCSH OVC035
     FM150100 20005KT 4SM -SHRA BR OVC010
     FM150300 27005KT 3SM -SHRA BR OVC006
     FM150800 31004KT P6SM OVC008=

USA.gov is the U.S. government's official web portal to all federal, state and local government web resources and services.